Time;durP1;ratioP1;P1;durP2;ratioP2;P2;SDS_P1;SDS_P2;PMS_P1;PMS_P2;Temp;Humidity;BMP_temperature;BMP_pressure;BME280_temperature;BME280_humidity;BME280_pressure;Samples;Min_cycle;Max_cycle;Signal;HPM_P1;HPM_P2
2022/09/07 00:00:14;;;;;;;14.77;7.85;;;19.50;99.90;;;;;;5053603;28;20080;-57
2022/09/07 00:02:40;;;;;;;12.60;8.23;;;19.50;99.90;;;;;;5053517;28;20082;-56
2022/09/07 00:05:06;;;;;;;11.85;9.25;;;19.50;99.90;;;;;;5053693;28;20467;-57
2022/09/07 00:07:31;;;;;;;11.63;8.80;;;19.50;99.90;;;;;;5057782;28;20400;-56
2022/09/07 00:09:57;;;;;;;9.48;7.55;;;19.50;99.90;;;;;;5057499;28;20049;-57
2022/09/07 00:12:23;;;;;;;11.30;7.65;;;19.40;99.90;;;;;;5039699;28;20110;-57
2022/09/07 00:14:48;;;;;;;11.57;8.32;;;19.50;99.90;;;;;;5056531;28;20045;-57
2022/09/07 00:17:14;;;;;;;18.23;8.38;;;19.40;99.90;;;;;;5055835;28;20049;-57
2022/09/07 00:19:40;;;;;;;11.70;7.68;;;19.30;99.90;;;;;;5055724;28;20049;-56
2022/09/07 00:22:05;;;;;;;11.38;8.25;;;19.30;99.90;;;;;;5056032;28;20041;-56
2022/09/07 00:24:31;;;;;;;16.08;9.50;;;19.30;99.90;;;;;;5055595;28;20455;-57
2022/09/07 00:26:57;;;;;;;13.18;8.30;;;19.30;99.90;;;;;;5057132;28;20049;-57
2022/09/07 00:29:23;;;;;;;12.75;8.75;;;19.20;99.90;;;;;;5057410;28;20178;-58
2022/09/07 00:31:48;;;;;;;10.73;9.60;;;19.20;99.90;;;;;;5057339;28;20072;-57
2022/09/07 00:34:14;;;;;;;15.05;10.18;;;19.20;99.90;;;;;;5057317;28;20052;-56
2022/09/07 00:36:39;;;;;;;10.85;8.93;;;19.30;99.90;;;;;;5057122;28;20048;-57
2022/09/07 00:39:05;;;;;;;11.45;9.95;;;19.30;99.90;;;;;;5073630;28;20442;-56
2022/09/07 00:41:31;;;;;;;11.57;9.55;;;19.10;99.90;;;;;;5058975;28;20083;-56
2022/09/07 00:44:18;;;;;;;12.40;9.60;;;19.20;99.90;;;;;;5076894;28;20051;-56
2022/09/07 00:46:45;;;;;;;10.27;9.18;;;19.20;99.90;;;;;;5077025;28;20044;-58
2022/09/07 00:49:17;;;;;;;12.57;10.50;;;19.10;99.90;;;;;;5076754;28;20123;-57
2022/09/07 00:51:50;;;;;;;15.13;9.82;;;19.10;99.90;;;;;;5076945;28;20094;-57
2022/09/07 00:54:45;;;;;;;11.13;9.57;;;19.00;99.90;;;;;;5076943;28;20084;-57
2022/09/07 00:57:12;;;;;;;15.02;8.52;;;19.00;99.90;;;;;;5076034;28;20048;-57
2022/09/07 00:59:44;;;;;;;10.23;9.18;;;18.90;99.90;;;;;;5076698;28;20495;-59
2022/09/07 01:02:11;;;;;;;13.57;8.98;;;18.90;99.90;;;;;;5076582;28;20127;-56
2022/09/07 01:04:38;;;;;;;12.30;9.93;;;18.90;99.90;;;;;;5076763;28;20041;-58
2022/09/07 01:07:04;;;;;;;12.05;9.45;;;18.80;99.90;;;;;;5076741;28;20048;-57
2022/09/07 01:09:31;;;;;;;12.45;8.93;;;18.80;99.90;;;;;;5076607;28;20040;-57
2022/09/07 01:11:59;;;;;;;14.63;10.77;;;18.80;99.90;;;;;;5076512;28;20048;-57
2022/09/07 01:14:35;;;;;;;12.65;10.02;;;18.80;99.90;;;;;;5075806;28;20123;-56
2022/09/07 01:17:46;;;;;;;10.93;9.80;;;18.80;99.90;;;;;;5075568;28;20052;-57
2022/09/07 01:20:30;;;;;;;11.50;10.05;;;18.80;99.90;;;;;;4994923;28;20078;-57
2022/09/07 01:23:10;;;;;;;14.88;9.13;;;18.80;99.90;;;;;;4994807;28;20074;-56
2022/09/07 01:25:49;;;;;;;10.35;8.57;;;18.80;99.90;;;;;;4994958;28;20388;-56
2022/09/07 01:28:19;;;;;;;15.60;9.60;;;18.80;99.90;;;;;;4994839;28;20058;-57
2022/09/07 01:30:57;;;;;;;17.45;9.65;;;18.70;99.90;;;;;;4994817;28;20058;-57
2022/09/07 01:33:47;;;;;;;19.90;10.32;;;18.50;99.90;;;;;;4994790;28;20137;-58
2022/09/07 01:36:26;;;;;;;30.20;14.45;;;18.50;99.90;;;;;;4978896;28;20054;-56
2022/09/07 01:38:59;;;;;;;37.45;16.70;;;18.40;99.90;;;;;;4994463;28;20093;-54
2022/09/07 01:41:35;;;;;;;18.48;10.80;;;18.20;99.90;;;;;;4994678;28;20054;-55
2022/09/07 01:44:11;;;;;;;18.60;11.75;;;18.00;99.90;;;;;;4994405;28;20227;-56
2022/09/07 01:47:00;;;;;;;26.02;13.93;;;17.90;99.90;;;;;;4994488;28;20081;-52
2022/09/07 01:49:35;;;;;;;18.45;11.45;;;17.80;99.90;;;;;;4994277;28;20146;-55
2022/09/07 01:52:16;;;;;;;22.33;12.43;;;17.60;99.90;;;;;;4994507;28;20046;-52
2022/09/07 01:54:49;;;;;;;14.07;10.55;;;17.70;99.90;;;;;;4994346;28;20489;-55
2022/09/07 01:57:21;;;;;;;14.13;11.70;;;17.80;99.90;;;;;;5043547;28;20114;-55
2022/09/07 01:59:54;;;;;;;19.02;14.40;;;17.70;99.90;;;;;;5075819;28;20047;-55
2022/09/07 02:02:33;;;;;;;30.08;14.15;;;17.70;99.90;;;;;;5075608;28;20372;-56
2022/09/07 02:05:06;;;;;;;15.88;12.23;;;17.80;99.90;;;;;;5075732;28;20041;-53
2022/09/07 02:07:50;;;;;;;17.08;12.50;;;17.80;99.90;;;;;;5075605;28;20120;-55
2022/09/07 02:10:21;;;;;;;12.85;9.75;;;17.80;99.90;;;;;;5075432;28;20549;-53
2022/09/07 02:12:53;;;;;;;15.27;10.15;;;17.80;99.90;;;;;;5057586;28;20060;-55
2022/09/07 02:15:27;;;;;;;14.90;7.93;;;17.70;99.90;;;;;;5075438;28;20052;-55
2022/09/07 02:18:00;;;;;;;9.82;7.05;;;17.80;99.90;;;;;;5075041;28;20499;-54
2022/09/07 02:20:37;;;;;;;11.65;6.40;;;17.90;99.90;;;;;;5075107;28;20080;-55
2022/09/07 02:23:07;;;;;;;14.10;6.88;;;18.10;99.90;;;;;;5075215;28;20543;-53
2022/09/07 02:25:41;;;;;;;10.98;6.05;;;18.00;99.90;;;;;;5075160;28;20048;-52
2022/09/07 02:28:18;;;;;;;7.93;4.70;;;18.00;99.90;;;;;;5075140;28;20048;-55
2022/09/07 02:30:43;;;;;;;9.10;4.60;;;17.90;99.90;;;;;;5075168;28;20114;-53
2022/09/07 02:33:09;;;;;;;10.32;6.10;;;17.90;99.90;;;;;;5075190;28;20434;-54
2022/09/07 02:35:35;;;;;;;9.25;6.07;;;18.00;99.90;;;;;;5074865;28;20091;-55
2022/09/07 02:38:04;;;;;;;11.73;6.47;;;18.00;99.90;;;;;;5074701;28;20055;-54
2022/09/07 02:40:30;;;;;;;7.47;5.78;;;18.10;99.90;;;;;;5074875;28;20044;-54
2022/09/07 02:42:59;;;;;;;9.55;5.68;;;18.00;99.90;;;;;;5075147;28;20403;-53
2022/09/07 02:45:24;;;;;;;;;;;17.90;99.90;;;;;;5075275;28;20057;-55
2022/09/07 02:48:14;;;;;;;8.15;4.75;;;18.00;99.90;;;;;;5074779;28;20014;-55
2022/09/07 02:50:57;;;;;;;9.73;4.33;;;18.10;99.90;;;;;;5074769;28;20468;-54
2022/09/07 02:53:49;;;;;;;12.68;5.50;;;17.90;99.90;;;;;;5074588;28;20084;-55
2022/09/07 02:56:23;;;;;;;8.48;4.57;;;18.10;99.90;;;;;;5074592;28;20044;-55
2022/09/07 02:59:01;;;;;;;6.13;5.18;;;18.00;99.90;;;;;;5074529;28;20132;-55
2022/09/07 03:01:45;;;;;;;7.07;5.18;;;17.90;99.90;;;;;;5074450;28;20438;-55
2022/09/07 03:04:17;;;;;;;6.85;5.45;;;18.00;99.90;;;;;;5074671;28;20044;-55
2022/09/07 03:07:05;;;;;;;5.70;4.95;;;18.00;99.90;;;;;;5074378;28;20048;-56
2022/09/07 03:09:39;;;;;;;6.13;5.15;;;17.90;99.90;;;;;;5056280;28;20052;-56
2022/09/07 03:12:06;;;;;;;5.25;4.57;;;18.00;99.90;;;;;;5074342;28;20117;-56
2022/09/07 03:14:33;;;;;;;8.73;5.22;;;18.10;99.90;;;;;;5074136;28;20120;-56
2022/09/07 03:16:59;;;;;;;5.88;4.90;;;18.00;99.90;;;;;;5074263;28;20059;-55
2022/09/07 03:19:25;;;;;;;6.07;5.35;;;17.90;99.90;;;;;;5074081;28;20059;-55
2022/09/07 03:21:52;;;;;;;6.45;4.93;;;17.90;99.90;;;;;;5074033;28;20090;-56
2022/09/07 03:24:18;;;;;;;9.05;4.90;;;17.90;99.90;;;;;;5074208;28;20048;-56
2022/09/07 03:26:45;;;;;;;7.88;5.20;;;18.00;99.90;;;;;;5074068;28;20460;-56
2022/09/07 03:29:11;;;;;;;7.25;4.88;;;17.90;99.90;;;;;;5073913;28;20049;-55
2022/09/07 03:31:37;;;;;;;5.68;4.85;;;18.10;99.90;;;;;;5074047;28;20044;-57
2022/09/07 03:34:03;;;;;;;7.78;5.32;;;18.10;99.90;;;;;;5073841;28;20166;-56
2022/09/07 03:36:30;;;;;;;4.90;3.80;;;18.00;99.90;;;;;;5073661;28;20048;-56
2022/09/07 03:38:57;;;;;;;9.10;5.82;;;18.10;99.90;;;;;;5073619;28;20049;-55
2022/09/07 03:41:23;;;;;;;8.40;6.07;;;18.10;99.90;;;;;;5073372;28;20041;-56
2022/09/07 03:43:48;;;;;;;8.60;6.28;;;18.10;99.90;;;;;;5073894;28;20494;-56
2022/09/07 03:46:18;;;;;;;5.15;4.65;;;18.10;99.90;;;;;;5055395;28;20048;-56
2022/09/07 03:48:44;;;;;;;6.70;4.80;;;18.10;99.90;;;;;;5073723;28;20036;-56
2022/09/07 03:51:12;;;;;;;10.02;5.03;;;18.00;99.90;;;;;;5073805;28;20048;-56
2022/09/07 03:53:40;;;;;;;6.57;5.10;;;18.10;99.90;;;;;;5073518;28;20050;-55
2022/09/07 03:56:10;;;;;;;5.67;4.73;;;18.00;99.90;;;;;;5073723;28;20052;-56
2022/09/07 03:58:36;;;;;;;6.28;4.55;;;18.00;99.90;;;;;;5073515;28;20275;-55
2022/09/07 04:01:08;;;;;;;5.57;4.65;;;17.90;99.90;;;;;;5073588;28;20041;-55
2022/09/07 04:03:34;;;;;;;5.43;4.82;;;17.80;99.90;;;;;;5073635;28;20037;-55
2022/09/07 04:06:01;;;;;;;5.57;4.70;;;18.00;99.90;;;;;;5073752;28;20041;-55
2022/09/07 04:08:28;;;;;;;5.78;4.30;;;17.70;99.90;;;;;;5073599;28;20052;-54
2022/09/07 04:11:02;;;;;;;8.60;5.47;;;17.80;99.90;;;;;;5073590;28;20045;-55
2022/09/07 04:13:29;;;;;;;6.13;5.53;;;17.80;99.90;;;;;;5073294;28;20048;-55
2022/09/07 04:15:55;;;;;;;5.50;5.00;;;17.60;99.90;;;;;;5073507;28;20048;-55
2022/09/07 04:18:21;;;;;;;9.13;6.00;;;17.60;99.90;;;;;;5073543;28;20041;-55
2022/09/07 04:20:49;;;;;;;6.80;6.13;;;17.50;99.90;;;;;;5073466;28;20044;-55
2022/09/07 04:23:18;;;;;;;7.18;6.13;;;17.40;99.90;;;;;;5072888;28;20391;-55
2022/09/07 04:25:51;;;;;;;7.88;6.50;;;17.50;99.90;;;;;;5073451;28;20073;-55
2022/09/07 04:28:19;;;;;;;6.30;5.47;;;17.50;99.90;;;;;;5073375;28;20049;-55
2022/09/07 04:30:46;;;;;;;7.72;5.60;;;17.50;99.90;;;;;;5073395;28;20059;-55
2022/09/07 04:33:12;;;;;;;6.80;6.20;;;17.40;99.90;;;;;;5073303;28;20044;-56
2022/09/07 04:35:39;;;;;;;6.93;6.18;;;17.50;99.90;;;;;;5073396;28;20051;-55
2022/09/07 04:38:06;;;;;;;8.90;6.65;;;17.40;99.90;;;;;;5072961;28;20056;-56
2022/09/07 04:40:34;;;;;;;7.80;7.00;;;17.60;99.90;;;;;;5072701;28;20176;-56
2022/09/07 04:43:00;;;;;;;8.35;7.00;;;17.50;99.90;;;;;;5054087;28;20377;-56
2022/09/07 04:45:26;;;;;;;6.90;6.20;;;17.60;99.90;;;;;;5072903;28;20051;-56
2022/09/07 04:47:51;;;;;;;7.30;6.45;;;17.50;99.90;;;;;;5073192;28;20124;-56
2022/09/07 04:50:17;;;;;;;9.70;6.07;;;17.70;99.90;;;;;;5073228;28;20052;-56
2022/09/07 04:52:43;;;;;;;7.47;6.35;;;17.60;99.90;;;;;;5057481;28;20445;-55
2022/09/07 04:55:10;;;;;;;7.55;6.85;;;17.60;99.90;;;;;;5076858;28;20044;-56
2022/09/07 04:57:36;;;;;;;8.80;7.70;;;17.60;99.90;;;;;;5076828;28;20139;-55
2022/09/07 05:00:06;;;;;;;11.95;8.82;;;17.50;99.90;;;;;;5076801;28;20123;-55
2022/09/07 05:02:32;;;;;;;9.90;8.80;;;17.40;99.90;;;;;;5076626;28;20571;-56
2022/09/07 05:04:57;;;;;;;9.77;8.77;;;17.40;99.90;;;;;;5076688;28;20119;-56
2022/09/07 05:07:23;;;;;;;13.13;9.18;;;17.30;99.90;;;;;;5076693;28;20041;-56
2022/09/07 05:09:49;;;;;;;10.90;9.40;;;17.30;99.90;;;;;;5076115;28;20134;-56
2022/09/07 05:12:15;;;;;;;13.63;10.23;;;17.20;99.90;;;;;;5076198;28;20567;-56
2022/09/07 05:14:40;;;;;;;12.07;10.73;;;17.40;99.90;;;;;;5075434;28;20053;-56
2022/09/07 05:17:06;;;;;;;14.95;10.98;;;17.20;99.90;;;;;;5075356;28;20036;-56
2022/09/07 05:19:32;;;;;;;12.57;11.38;;;17.20;99.90;;;;;;5076122;28;20048;-57
2022/09/07 05:21:58;;;;;;;18.08;13.80;;;17.40;99.90;;;;;;5076344;28;20036;-56
2022/09/07 05:24:25;;;;;;;15.05;13.52;;;17.20;99.90;;;;;;5041539;28;20040;-56
2022/09/07 05:26:52;;;;;;;15.10;13.60;;;17.30;99.90;;;;;;5058249;28;20075;-55
2022/09/07 05:29:18;;;;;;;16.45;14.43;;;17.20;99.90;;;;;;5076413;28;20056;-55
2022/09/07 05:31:44;;;;;;;17.42;15.40;;;17.30;99.90;;;;;;5076265;28;20139;-58
2022/09/07 05:34:10;;;;;;;18.67;15.50;;;17.40;99.90;;;;;;5076246;28;20079;-56
2022/09/07 05:36:36;;;;;;;19.50;17.00;;;17.20;99.90;;;;;;5076224;28;20051;-56
2022/09/07 05:39:03;;;;;;;20.58;17.38;;;17.40;99.90;;;;;;5075702;28;20057;-56
2022/09/07 05:41:29;;;;;;;19.30;17.27;;;17.40;99.90;;;;;;5076061;28;20044;-56
2022/09/07 05:43:55;;;;;;;25.23;17.45;;;17.30;99.90;;;;;;5074636;28;20048;-56
2022/09/07 05:46:21;;;;;;;18.00;16.15;;;17.20;99.90;;;;;;5074961;28;20037;-57
2022/09/07 05:48:46;;;;;;;20.23;17.75;;;17.40;99.90;;;;;;5074600;28;20050;-57
2022/09/07 05:51:13;;;;;;;22.33;17.25;;;17.30;99.90;;;;;;5074910;28;20041;-57
2022/09/07 05:53:41;;;;;;;18.88;16.95;;;17.30;99.90;;;;;;5075534;28;20406;-56
2022/09/07 05:56:08;;;;;;;21.63;17.63;;;17.20;99.90;;;;;;5075889;28;20044;-56
2022/09/07 05:58:35;;;;;;;17.95;15.98;;;17.30;99.90;;;;;;5075574;28;20506;-55
2022/09/07 06:01:06;;;;;;;19.98;17.80;;;17.20;99.90;;;;;;5075705;28;20133;-55
2022/09/07 06:03:33;;;;;;;22.40;18.15;;;17.30;99.90;;;;;;5074996;28;20368;-56
2022/09/07 06:06:09;;;;;;;23.60;19.10;;;17.40;99.90;;;;;;5075653;28;20045;-55
2022/09/07 06:08:36;;;;;;;19.95;17.75;;;17.30;99.90;;;;;;5075552;28;20048;-55
2022/09/07 06:11:07;;;;;;;22.63;19.77;;;17.30;99.90;;;;;;5075535;28;20082;-55
2022/09/07 06:13:33;;;;;;;19.13;17.33;;;17.30;99.90;;;;;;5074978;28;20047;-55
2022/09/07 06:16:04;;;;;;;25.00;19.75;;;17.30;99.90;;;;;;5075339;28;20055;-55
2022/09/07 06:18:31;;;;;;;23.75;19.23;;;17.20;99.90;;;;;;5075366;28;20048;-55
2022/09/07 06:21:18;;;;;;;21.38;19.15;;;17.20;99.90;;;;;;5075031;28;20051;-55
2022/09/07 06:23:45;;;;;;;28.42;21.15;;;17.30;99.90;;;;;;5074761;28;20368;-55
2022/09/07 06:26:11;;;;;;;25.85;20.75;;;17.30;99.90;;;;;;5074483;28;20043;-55
2022/09/07 06:28:41;;;;;;;28.83;20.92;;;17.50;99.90;;;;;;5075102;28;20044;-55
2022/09/07 06:31:09;;;;;;;27.30;20.85;;;17.50;99.90;;;;;;5075094;28;20041;-56
2022/09/07 06:33:35;;;;;;;25.10;22.47;;;17.70;99.90;;;;;;5075282;28;20048;-56
2022/09/07 06:36:06;;;;;;;26.95;23.98;;;17.70;99.90;;;;;;5074982;28;20040;-56
2022/09/07 06:38:36;;;;;;;21.58;19.38;;;17.70;99.90;;;;;;5072627;28;20123;-56
2022/09/07 06:41:04;;;;;;;21.30;18.65;;;17.70;99.90;;;;;;5074807;28;20080;-56
2022/09/07 06:43:30;;;;;;;24.77;19.75;;;17.80;99.90;;;;;;5074823;28;20127;-56
2022/09/07 06:45:57;;;;;;;23.42;18.90;;;17.70;99.90;;;;;;5074747;28;20068;-55
2022/09/07 06:48:23;;;;;;;21.90;19.25;;;17.60;99.90;;;;;;5074700;28;20044;-55
2022/09/07 06:51:25;;;;;;;21.48;19.20;;;17.60;99.90;;;;;;5074992;28;20127;-56
2022/09/07 06:53:54;;;;;;;23.73;20.20;;;17.60;99.90;;;;;;5074650;28;20487;-55
2022/09/07 06:56:19;;;;;;;26.35;23.20;;;17.60;99.90;;;;;;5074334;28;20518;-55
2022/09/07 06:58:45;;;;;;;27.95;23.83;;;17.60;99.90;;;;;;5056340;28;20052;-55
2022/09/07 07:01:13;;;;;;;28.95;25.67;;;17.70;99.90;;;;;;5074732;28;20041;-55
2022/09/07 07:03:39;;;;;;;30.45;24.70;;;17.70;99.90;;;;;;5056814;28;20045;-55
2022/09/07 07:06:05;;;;;;;31.23;26.33;;;17.70;99.90;;;;;;5074402;28;20044;-55
2022/09/07 07:08:31;;;;;;;29.00;24.45;;;17.80;99.90;;;;;;5074445;28;20040;-55
2022/09/07 07:11:04;;;;;;;29.90;26.48;;;17.60;99.90;;;;;;5074237;28;20052;-55
2022/09/07 07:13:30;;;;;;;28.65;25.08;;;17.70;99.90;;;;;;5073967;28;20044;-55
2022/09/07 07:16:10;;;;;;;29.88;26.48;;;17.60;99.90;;;;;;5073837;28;20043;-55
2022/09/07 07:18:36;;;;;;;31.27;26.95;;;17.60;99.90;;;;;;5074359;28;20044;-54
2022/09/07 07:21:04;;;;;;;31.25;25.35;;;17.60;99.90;;;;;;5074119;28;20049;-55
2022/09/07 07:23:30;;;;;;;26.90;24.25;;;17.60;99.90;;;;;;5074197;28;20048;-55
2022/09/07 07:25:59;;;;;;;31.85;24.15;;;17.80;99.90;;;;;;5074146;28;20379;-55
2022/09/07 07:28:26;;;;;;;23.58;20.92;;;17.80;99.90;;;;;;5074015;28;20045;-55
2022/09/07 07:31:00;;;;;;;25.23;21.73;;;17.90;99.90;;;;;;5074093;28;20052;-55
2022/09/07 07:33:39;;;;;;;22.42;20.05;;;17.70;99.90;;;;;;5073764;28;20048;-55
2022/09/07 07:36:07;;;;;;;22.08;19.77;;;17.70;99.90;;;;;;5065920;28;20483;-55
2022/09/07 07:38:33;;;;;;;26.48;21.52;;;17.60;99.90;;;;;;5073831;28;20394;-55
2022/09/07 07:40:59;;;;;;;21.85;19.52;;;17.60;99.90;;;;;;5073820;28;20044;-55
2022/09/07 07:43:24;;;;;;;26.83;22.00;;;17.70;99.90;;;;;;5055878;28;20052;-55
2022/09/07 07:45:50;;;;;;;24.23;21.83;;;17.70;99.90;;;;;;5073908;28;20120;-55
2022/09/07 07:48:16;;;;;;;25.05;22.23;;;17.60;99.90;;;;;;5055821;28;20091;-55
2022/09/07 07:50:41;;;;;;;28.02;21.65;;;17.50;99.90;;;;;;5073782;28;20055;-55
2022/09/07 07:53:07;;;;;;;23.50;21.02;;;17.60;99.90;;;;;;5073802;28;20398;-55
2022/09/07 07:55:33;;;;;;;24.90;22.33;;;17.50;99.90;;;;;;5073788;28;20071;-55
2022/09/07 07:57:58;;;;;;;22.95;20.27;;;17.70;99.90;;;;;;5073960;28;20047;-55
2022/09/07 08:00:24;;;;;;;30.00;22.58;;;17.80;99.90;;;;;;5073569;28;20055;-55
2022/09/07 08:02:49;;;;;;;28.05;23.60;;;17.80;99.90;;;;;;5073654;28;20103;-55
2022/09/07 08:05:16;;;;;;;25.42;21.38;;;17.80;99.90;;;;;;5055614;28;20037;-55
2022/09/07 08:07:41;;;;;;;30.80;23.23;;;17.70;99.90;;;;;;5073662;28;20063;-55
2022/09/07 08:10:09;;;;;;;29.73;25.08;;;17.80;99.90;;;;;;5055522;28;20049;-55
2022/09/07 08:12:34;;;;;;;28.40;25.13;;;17.80;99.90;;;;;;5072983;28;20060;-57
2022/09/07 08:15:00;;;;;;;36.08;25.75;;;18.00;99.90;;;;;;5072268;28;20044;-55
2022/09/07 08:17:26;;;;;;;28.17;25.23;;;17.90;99.90;;;;;;5072179;28;20048;-55
2022/09/07 08:19:53;;;;;;;25.20;22.73;;;17.90;99.90;;;;;;5072447;28;20529;-56
2022/09/07 08:22:19;;;;;;;27.27;23.63;;;18.10;99.90;;;;;;5073619;28;20083;-56
2022/09/07 08:24:44;;;;;;;26.35;23.55;;;18.10;99.90;;;;;;5073413;28;20141;-56
2022/09/07 08:27:10;;;;;;;28.42;24.60;;;18.20;99.90;;;;;;5075291;28;20384;-56
2022/09/07 08:29:36;;;;;;;27.20;24.17;;;18.30;99.90;;;;;;5077492;28;20118;-57
2022/09/07 08:32:04;;;;;;;26.40;23.70;;;18.20;99.90;;;;;;5077365;28;20052;-57
2022/09/07 08:34:29;;;;;;;30.33;25.57;;;18.40;99.90;;;;;;5077487;28;20059;-56
2022/09/07 08:36:55;;;;;;;27.83;24.77;;;18.50;99.90;;;;;;5077250;28;20479;-56
2022/09/07 08:39:21;;;;;;;25.70;23.02;;;18.40;99.90;;;;;;5077099;28;20132;-55
2022/09/07 08:42:27;;;;;;;29.25;25.80;;;18.50;99.90;;;;;;5059160;28;20048;-56
2022/09/07 08:44:59;;;;;;;30.17;25.80;;;18.70;99.90;;;;;;5076956;28;20040;-56
2022/09/07 08:47:54;;;;;;;31.77;24.05;;;18.50;99.90;;;;;;5077135;28;20475;-56
2022/09/07 08:50:33;;;;;;;26.85;23.45;;;18.70;99.90;;;;;;4995603;28;20400;-55
2022/09/07 08:53:28;;;;;;;29.52;24.13;;;18.70;99.90;;;;;;4995535;28;20505;-56
2022/09/07 08:56:16;;;;;;;27.23;24.20;;;18.60;99.90;;;;;;4937623;29;20058;-56
2022/09/07 08:58:52;;;;;;;30.35;24.58;;;18.60;99.90;;;;;;4937632;29;20071;-55
2022/09/07 09:01:19;;;;;;;28.20;24.77;;;18.60;99.90;;;;;;4937571;29;20077;-57
2022/09/07 09:03:48;;;;;;;28.10;24.75;;;18.80;99.90;;;;;;4937332;29;20502;-55
2022/09/07 09:06:32;;;;;;;27.80;25.00;;;18.80;99.90;;;;;;4937305;29;20168;-56
2022/09/07 09:09:19;;;;;;;29.75;26.02;;;18.90;99.90;;;;;;4937307;29;20051;-55
2022/09/07 09:12:06;;;;;;;26.10;23.38;;;18.80;99.90;;;;;;4937176;29;20052;-57
2022/09/07 09:14:51;;;;;;;32.08;25.73;;;19.00;99.90;;;;;;4937310;29;20044;-55
2022/09/07 09:17:47;;;;;;;26.30;23.67;;;19.30;99.90;;;;;;4937243;29;20056;-56
2022/09/07 09:20:16;;;;;;;25.00;22.35;;;19.40;99.90;;;;;;4937265;29;20087;-55
2022/09/07 09:22:42;;;;;;;29.00;22.17;;;19.60;99.90;;;;;;4937001;29;20040;-55
2022/09/07 09:25:16;;;;;;;22.88;20.40;;;19.60;99.90;;;;;;4936989;29;20047;-56
2022/09/07 09:27:42;;;;;;;25.20;22.60;;;19.70;99.90;;;;;;4989461;28;20050;-56
2022/09/07 09:30:13;;;;;;;27.83;22.55;;;19.80;99.90;;;;;;4994954;28;20049;-56
2022/09/07 09:32:41;;;;;;;25.25;20.77;;;19.90;99.90;;;;;;5030445;28;20044;-57
2022/09/07 09:35:22;;;;;;;25.23;22.63;;;20.00;99.90;;;;;;5076405;28;20063;-56
2022/09/07 09:37:47;;;;;;;22.88;20.42;;;20.10;99.90;;;;;;5075688;28;20060;-56
2022/09/07 09:40:26;;;;;;;23.60;20.63;;;20.20;99.90;;;;;;5057845;28;20049;-56
2022/09/07 09:43:01;;;;;;;23.92;21.42;;;20.20;99.90;;;;;;5076130;28;20047;-56
2022/09/07 09:45:30;;;;;;;22.20;19.73;;;20.40;99.90;;;;;;5075992;28;20060;-56
2022/09/07 09:47:57;;;;;;;22.95;20.55;;;20.30;99.90;;;;;;5076066;28;20054;-56
2022/09/07 09:50:37;;;;;;;23.63;20.90;;;20.40;99.90;;;;;;5076006;28;20049;-56
2022/09/07 09:53:05;;;;;;;23.13;20.55;;;20.40;99.90;;;;;;5075964;28;20051;-55
2022/09/07 09:55:34;;;;;;;21.20;18.33;;;20.50;99.90;;;;;;5075013;28;20091;-56
2022/09/07 09:58:03;;;;;;;19.33;17.30;;;20.60;99.90;;;;;;5075816;28;20044;-56
2022/09/07 10:00:30;;;;;;;;;;;20.80;99.90;;;;;;5076132;28;20051;-57
2022/09/07 10:03:11;;;;;;;18.27;16.58;;;20.80;99.90;;;;;;5075745;28;19948;-56
2022/09/07 10:05:41;;;;;;;17.40;15.48;;;21.00;99.90;;;;;;5075362;28;20058;-57
2022/09/07 10:08:18;;;;;;;17.95;16.20;;;21.10;99.90;;;;;;5075624;28;20080;-57
2022/09/07 10:10:54;;;;;;;18.42;15.77;;;21.20;99.90;;;;;;5075392;28;20087;-56
2022/09/07 10:13:22;;;;;;;15.30;13.85;;;21.10;99.90;;;;;;5074595;28;20131;-56
2022/09/07 10:15:53;;;;;;;15.32;13.73;;;21.20;99.90;;;;;;5074618;28;20380;-56
2022/09/07 10:18:27;;;;;;;12.55;11.27;;;21.00;99.90;;;;;;5074265;28;20045;-56
2022/09/07 10:21:16;;;;;;;10.18;8.77;;;21.10;99.90;;;;;;5075322;28;20383;-55
2022/09/07 10:23:41;;;;;;;11.20;8.23;;;21.20;99.90;;;;;;5075184;28;20072;-57
2022/09/07 10:26:40;;;;;;;9.20;8.38;;;21.30;99.90;;;;;;5075038;28;20099;-56
2022/09/07 10:29:18;;;;;;;9.25;8.35;;;21.50;99.90;;;;;;4993695;28;20404;-57
2022/09/07 10:31:49;;;;;;;9.10;7.82;;;21.70;99.90;;;;;;4993624;28;20051;-57
2022/09/07 10:34:28;;;;;;;8.18;7.03;;;22.00;99.90;;;;;;4993467;28;20050;-56
2022/09/07 10:37:08;;;;;;;7.47;6.47;;;22.30;99.90;;;;;;4993581;28;20038;-56
2022/09/07 10:39:40;;;;;;;8.93;6.18;;;22.40;99.90;;;;;;4993425;28;20054;-56
2022/09/07 10:42:08;;;;;;;6.68;6.07;;;22.60;99.90;;;;;;4993066;28;20048;-56
2022/09/07 10:44:52;;;;;;;6.38;5.80;;;22.90;99.90;;;;;;4992182;28;20571;-56
2022/09/07 10:47:18;;;;;;;6.93;6.00;;;23.00;99.90;;;;;;4992181;28;20054;-56
2022/09/07 10:49:54;;;;;;;7.40;6.65;;;23.00;99.90;;;;;;4993337;28;20497;-56
2022/09/07 10:52:45;;;;;;;6.82;6.13;;;22.90;99.90;;;;;;4993384;28;20054;-56
2022/09/07 10:55:32;;;;;;;6.40;5.72;;;22.70;99.90;;;;;;4993349;28;20121;-56
2022/09/07 10:58:10;;;;;;;5.50;5.00;;;22.90;99.90;;;;;;4977122;28;20152;-56
2022/09/07 11:00:54;;;;;;;6.10;5.10;;;23.10;99.90;;;;;;4993063;28;20389;-56
2022/09/07 11:03:34;;;;;;;8.13;5.65;;;23.50;99.90;;;;;;4993096;28;20536;-57
2022/09/07 11:06:17;;;;;;;6.50;5.43;;;23.70;99.90;;;;;;5074529;28;20033;-56
2022/09/07 11:09:12;;;;;;;5.95;5.35;;;23.80;99.90;;;;;;5074228;28;20596;-56
2022/09/07 11:11:45;;;;;;;5.75;5.22;;;23.50;99.90;;;;;;4992981;28;20129;-56
2022/09/07 11:14:14;;;;;;;4.90;4.40;;;23.50;99.90;;;;;;4992837;28;20061;-57
2022/09/07 11:16:56;;;;;;;6.63;6.03;;;23.40;99.90;;;;;;4992816;28;20043;-57
2022/09/07 11:19:44;;;;;;;6.80;6.20;;;23.40;99.90;;;;;;4992733;28;20429;-56
2022/09/07 11:22:35;;;;;;;6.38;5.78;;;23.60;99.90;;;;;;4992691;28;20497;-56
2022/09/07 11:25:23;;;;;;;6.55;5.78;;;23.60;99.90;;;;;;4992813;28;20112;-56
2022/09/07 11:28:13;;;;;;;5.90;5.30;;;23.60;99.90;;;;;;4992597;28;20042;-56
2022/09/07 11:30:48;;;;;;;6.47;5.88;;;23.40;99.90;;;;;;4992716;28;20058;-56
2022/09/07 11:33:40;;;;;;;6.15;5.55;;;23.30;99.90;;;;;;4992645;28;20132;-57
2022/09/07 11:36:10;;;;;;;5.55;5.05;;;23.30;99.90;;;;;;4992636;28;20563;-57
2022/09/07 11:38:58;;;;;;;6.53;4.32;;;23.20;99.90;;;;;;4992403;28;20062;-57
2022/09/07 11:41:40;;;;;;;5.93;4.55;;;23.20;99.90;;;;;;4992282;28;20054;-55
2022/09/07 11:44:10;;;;;;;3.90;3.50;;;23.10;99.90;;;;;;4992409;28;20520;-56
2022/09/07 11:46:58;;;;;;;3.90;3.17;;;23.00;99.90;;;;;;4992443;28;20132;-56
2022/09/07 11:49:25;;;;;;;3.88;3.17;;;23.20;99.90;;;;;;5067953;28;20530;-57
2022/09/07 11:52:02;;;;;;;4.53;2.88;;;23.20;99.90;;;;;;5073742;28;20091;-57
2022/09/07 11:54:32;;;;;;;3.25;2.40;;;23.40;99.90;;;;;;5073820;28;20049;-65
2022/09/07 11:57:07;;;;;;;3.35;2.20;;;23.80;99.90;;;;;;5073586;28;20498;-65
2022/09/07 11:59:42;;;;;;;3.53;1.80;;;23.80;99.90;;;;;;5073546;28;20542;-65
2022/09/07 12:02:45;;;;;;;2.47;1.63;;;23.70;99.90;;;;;;5073032;28;20124;-65
2022/09/07 12:05:44;;;;;;;5.78;2.20;;;23.90;99.90;;;;;;5073682;28;20041;-65
2022/09/07 12:08:35;;;;;;;1.52;1.40;;;24.30;99.90;;;;;;5055697;28;20094;-62
2022/09/07 12:11:09;;;;;;;1.73;1.30;;;25.00;99.90;;;;;;5073589;28;20084;-63
2022/09/07 12:13:59;;;;;;;2.72;1.42;;;25.00;99.90;;;;;;5073975;28;20049;-63
2022/09/07 12:17:07;;;;;;;5.05;1.23;;;25.50;99.90;;;;;;5073622;28;20438;-63
2022/09/07 12:19:33;;;;;;;2.22;1.25;;;25.40;99.90;;;;;;5072465;28;20448;-63
2022/09/07 12:21:59;;;;;;;4.13;1.20;;;26.20;99.90;;;;;;5073587;28;20095;-55
2022/09/07 12:24:48;;;;;;;1.77;1.15;;;26.60;99.90;;;;;;5073387;28;20056;-56
2022/09/07 12:27:20;;;;;;;;;;;26.80;99.90;;;;;;5073959;28;20053;-55
2022/09/07 12:29:47;;;;;;;3.55;1.42;;;26.40;99.90;;;;;;5073511;28;19970;-55
2022/09/07 12:32:41;;;;;;;2.08;1.20;;;25.80;99.90;;;;;;5073707;28;20049;-56
2022/09/07 12:35:27;;;;;;;4.13;1.63;;;25.50;99.90;;;;;;5073411;28;20049;-55
2022/09/07 12:37:54;;;;;;;1.92;1.38;;;25.20;99.90;;;;;;5073067;28;20479;-55
2022/09/07 12:40:35;;;;;;;2.17;1.58;;;26.10;99.90;;;;;;5055053;28;20131;-55
2022/09/07 12:43:12;;;;;;;1.90;1.20;;;26.20;99.90;;;;;;5073476;28;20408;-55
2022/09/07 12:45:38;;;;;;;3.20;1.23;;;26.90;99.90;;;;;;5073100;28;20056;-56
2022/09/07 12:48:15;;;;;;;1.95;1.38;;;27.30;99.90;;;;;;5073359;28;20167;-55
2022/09/07 12:50:57;;;;;;;3.00;1.42;;;27.70;99.90;;;;;;5073060;28;20532;-62
2022/09/07 12:53:28;;;;;;;3.85;1.48;;;27.90;99.90;;;;;;5073483;28;20072;-62
2022/09/07 12:56:13;;;;;;;3.47;1.50;;;28.10;99.90;;;;;;5073113;28;20513;-62
2022/09/07 12:59:05;;;;;;;3.17;1.17;;;28.20;99.90;;;;;;5073108;28;20514;-62
2022/09/07 13:01:40;;;;;;;1.35;1.20;;;28.20;99.90;;;;;;5073206;28;20052;-62
2022/09/07 13:04:08;;;;;;;1.35;1.00;;;28.00;99.90;;;;;;5073017;28;20122;-62